createdAt,value
2023-12-29T00:00:42.625Z,96451.81
2023-12-29T00:03:11.575Z,96451.81
2023-12-29T00:05:40.097Z,96454.72
2023-12-29T00:08:08.551Z,96456.53
2023-12-29T00:10:38.147Z,96459.72
2023-12-29T00:13:06.644Z,96460.75
2023-12-29T00:15:35.069Z,96465.22
2023-12-29T00:18:03.972Z,96455.50
2023-12-29T00:20:38.254Z,96452.31
2023-12-29T00:23:10.206Z,96454.16
2023-12-29T00:25:38.999Z,96458.38
2023-12-29T00:28:07.489Z,96457.34
2023-12-29T00:30:48.127Z,96466.00
2023-12-29T00:33:27.090Z,96455.75
2023-12-29T00:35:55.580Z,96452.09
2023-12-29T00:38:24.054Z,96448.91
2023-12-29T00:40:52.463Z,96456.00
2023-12-29T00:43:20.986Z,96456.25
2023-12-29T00:45:49.541Z,96457.81
2023-12-29T00:48:18.170Z,96463.63
2023-12-29T00:50:47.957Z,96462.59
2023-12-29T00:53:16.460Z,96460.75
2023-12-29T00:55:44.875Z,96465.75
2023-12-29T00:58:13.313Z,96464.72
2023-12-29T01:00:42.595Z,96454.19
2023-12-29T01:03:11.619Z,96461.81
2023-12-29T01:05:40.603Z,96460.22
2023-12-29T01:08:09.025Z,96467.09
2023-12-29T01:10:37.924Z,96470.00
2023-12-29T01:13:06.367Z,96472.38
2023-12-29T01:15:35.092Z,96475.25
2023-12-29T01:18:03.824Z,96474.72
2023-12-29T01:20:32.650Z,96477.34
2023-12-29T01:23:01.128Z,96481.81
2023-12-29T01:25:29.874Z,96483.16
2023-12-29T01:27:58.580Z,96483.69
2023-12-29T01:30:27.136Z,96493.13
2023-12-29T01:32:55.854Z,96487.88
2023-12-29T01:35:24.259Z,96496.81
2023-12-29T01:37:53.015Z,96494.44
2023-12-29T01:40:21.432Z,96486.81
2023-12-29T01:42:49.871Z,96489.47
2023-12-29T01:45:24.105Z,96479.16
2023-12-29T01:47:52.924Z,96481.00
2023-12-29T01:50:22.969Z,96478.63
2023-12-29T01:52:52.383Z,96490.50
2023-12-29T01:55:23.507Z,96494.44
2023-12-29T01:57:52.915Z,96496.31
2023-12-29T02:00:22.972Z,96494.94
2023-12-29T02:02:51.897Z,96498.13
2023-12-29T02:05:22.530Z,96493.66
2023-12-29T02:07:53.452Z,96493.91
2023-12-29T02:10:22.121Z,96484.44
2023-12-29T02:12:52.304Z,96484.44
2023-12-29T02:15:22.275Z,96482.59
2023-12-29T02:17:54.798Z,96479.97
2023-12-29T02:20:26.216Z,96492.88
2023-12-29T02:22:54.610Z,96491.28
2023-12-29T02:25:23.777Z,96490.53
2023-12-29T02:27:59.669Z,96494.50
2023-12-29T02:30:36.751Z,96492.94
2023-12-29T02:33:07.363Z,96494.50
2023-12-29T02:35:44.270Z,96496.88
2023-12-29T02:38:13.268Z,96491.91
2023-12-29T02:40:42.105Z,96495.31
2023-12-29T02:43:11.455Z,96497.72
2023-12-29T02:45:40.210Z,96492.19
2023-12-29T02:48:08.910Z,96496.66
2023-12-29T02:50:37.604Z,96499.00
2023-12-29T02:53:06.119Z,96499.78
2023-12-29T02:55:34.701Z,96497.94
2023-12-29T02:58:03.506Z,96498.50
2023-12-29T03:00:36.515Z,96499.28
2023-12-29T03:03:05.479Z,96495.88
2023-12-29T03:05:34.026Z,96492.47
2023-12-29T03:08:03.095Z,96497.72
2023-12-29T03:10:31.826Z,96504.53
2023-12-29T03:13:00.250Z,96504.84
2023-12-29T03:15:28.659Z,96506.16
2023-12-29T03:17:57.172Z,96507.22
2023-12-29T03:20:27.049Z,96503.31
2023-12-29T03:22:57.203Z,96504.63
2023-12-29T03:25:25.560Z,96498.31
2023-12-29T03:27:54.647Z,96500.97
2023-12-29T03:30:23.941Z,96493.09
2023-12-29T03:32:52.450Z,96496.00
2023-12-29T03:35:20.852Z,96498.13
2023-12-29T03:37:49.614Z,96491.81
2023-12-29T03:40:18.272Z,96501.84
2023-12-29T03:42:46.938Z,96498.97
2023-12-29T03:45:15.811Z,96504.78
2023-12-29T03:47:44.289Z,96501.91
2023-12-29T03:50:12.872Z,96496.41
2023-12-29T03:52:41.345Z,96500.13
2023-12-29T03:55:10.027Z,96508.00
2023-12-29T03:57:38.661Z,96511.44
2023-12-29T04:00:09.398Z,96501.19
2023-12-29T04:02:40.599Z,96509.63
2023-12-29T04:05:10.812Z,96510.69
2023-12-29T04:07:42.538Z,96504.63
2023-12-29T04:10:11.259Z,96500.94
2023-12-29T04:12:39.873Z,96514.13
2023-12-29T04:15:08.675Z,96506.47
2023-12-29T04:17:37.221Z,96503.06
2023-12-29T04:20:06.811Z,96506.75
2023-12-29T04:22:35.976Z,96493.59
2023-12-29T04:25:04.561Z,96491.22
2023-12-29T04:27:32.977Z,96486.22
2023-12-29T04:30:01.400Z,96486.19
2023-12-29T04:32:29.982Z,96480.91
2023-12-29T04:34:58.549Z,96502.78
2023-12-29T04:37:27.153Z,96488.78
2023-12-29T04:39:55.653Z,96503.56
2023-12-29T04:42:25.148Z,96513.63
2023-12-29T04:44:53.595Z,96510.97
2023-12-29T04:47:22.081Z,96512.81
2023-12-29T04:49:50.619Z,96507.56
2023-12-29T04:52:19.110Z,96511.75
2023-12-29T04:54:48.370Z,96502.28
2023-12-29T04:57:18.065Z,96509.66
2023-12-29T04:59:46.402Z,96510.47
2023-12-29T05:02:15.303Z,96508.59
2023-12-29T05:04:44.282Z,96505.16
2023-12-29T05:07:13.359Z,96502.00
2023-12-29T05:09:41.887Z,96503.34
2023-12-29T05:12:10.278Z,96509.94
2023-12-29T05:14:38.780Z,96510.44
2023-12-29T05:17:07.165Z,96510.44
2023-12-29T05:19:35.608Z,96516.75
2023-12-29T05:22:04.605Z,96515.97
2023-12-29T05:24:33.109Z,96512.56
2023-12-29T05:27:01.579Z,96514.13
2023-12-29T05:29:30.080Z,96507.81
2023-12-29T05:31:59.007Z,96515.44
2023-12-29T05:34:27.529Z,96517.03
2023-12-29T05:36:57.295Z,96505.44
2023-12-29T05:39:26.191Z,96517.03
2023-12-29T05:41:54.690Z,96508.03
2023-12-29T05:44:23.246Z,96507.25
2023-12-29T05:46:52.722Z,96500.94
2023-12-29T05:49:21.365Z,96504.91
2023-12-29T05:51:49.897Z,96503.31
2023-12-29T05:54:18.260Z,96500.94
2023-12-29T05:56:46.827Z,96495.66
2023-12-29T05:59:15.469Z,96499.34
2023-12-29T06:01:45.811Z,96494.56
2023-12-29T06:04:14.669Z,96498.03
2023-12-29T06:06:47.569Z,96494.31
2023-12-29T06:09:16.165Z,96489.84
2023-12-29T06:11:44.603Z,96484.28
2023-12-29T06:14:13.171Z,96476.88
2023-12-29T06:16:41.650Z,96476.66
2023-12-29T06:19:10.658Z,96475.28
2023-12-29T06:21:43.600Z,96475.06
2023-12-29T06:24:13.091Z,96473.19
2023-12-29T06:26:46.209Z,96477.41
2023-12-29T06:29:14.652Z,96481.63
2023-12-29T06:31:44.257Z,96477.94
2023-12-29T06:34:13.205Z,96475.56
2023-12-29T06:36:42.662Z,96468.44
2023-12-29T06:39:11.133Z,96470.00
2023-12-29T06:41:39.620Z,96472.13
2023-12-29T06:44:08.074Z,96478.47
2023-12-29T06:46:38.645Z,96474.50
2023-12-29T06:49:09.607Z,96475.28
2023-12-29T06:51:40.683Z,96473.69
2023-12-29T06:54:09.422Z,96471.81
2023-12-29T06:56:37.860Z,96471.03
2023-12-29T06:59:06.424Z,96469.72
2023-12-29T07:01:35.783Z,96477.66
2023-12-29T07:04:04.845Z,96472.09
2023-12-29T07:06:33.390Z,96478.69
2023-12-29T07:09:02.683Z,96471.84
2023-12-29T07:11:31.176Z,96471.59
2023-12-29T07:13:59.719Z,96469.44
2023-12-29T07:16:28.477Z,96474.22
2023-12-29T07:18:57.228Z,96476.88
2023-12-29T07:21:25.978Z,96472.38
2023-12-29T07:23:54.584Z,96478.19
2023-12-29T07:26:23.077Z,96480.28
2023-12-29T07:28:55.749Z,96478.19
2023-12-29T07:31:24.468Z,96476.31
2023-12-29T07:33:53.125Z,96478.97
2023-12-29T07:36:21.663Z,96478.19
2023-12-29T07:38:51.257Z,96477.91
2023-12-29T07:41:20.555Z,96481.84
2023-12-29T08:49:39.494Z,96494.00
2023-12-29T08:52:08.628Z,96498.75
2023-12-29T08:54:38.423Z,96501.41
2023-12-29T08:57:08.544Z,96497.16
2023-12-29T08:59:37.191Z,96510.38
2023-12-29T09:02:06.521Z,96507.47
2023-12-29T09:04:35.314Z,96512.50
2023-12-29T09:07:06.304Z,96504.56
2023-12-29T09:09:35.231Z,96497.97
2023-12-29T09:12:03.646Z,96501.41
2023-12-29T09:14:34.252Z,96501.94
2023-12-29T09:17:02.921Z,96508.78
2023-12-29T09:19:39.126Z,96515.91
2023-12-29T09:22:09.576Z,96514.59
2023-12-29T09:24:38.088Z,96509.81
2023-12-29T09:27:06.756Z,96519.31
2023-12-29T09:29:35.162Z,96515.34
2023-12-29T09:32:03.965Z,96520.38
2023-12-29T09:34:32.531Z,96518.25
2023-12-29T09:37:01.040Z,96516.41
2023-12-29T09:39:30.151Z,96522.47
2023-12-29T09:42:00.291Z,96516.94
2023-12-29T09:44:30.180Z,96520.34
2023-12-29T09:47:02.531Z,96515.84
2023-12-29T09:49:49.264Z,96523.53
2023-12-29T09:52:18.849Z,96509.53
2023-12-29T09:54:48.083Z,96511.66
2023-12-29T09:57:16.587Z,96510.84
2023-12-29T09:59:45.082Z,96518.00
2023-12-29T10:02:17.857Z,96511.13
2023-12-29T10:04:47.219Z,96515.09
2023-12-29T10:07:21.211Z,96518.00
2023-12-29T10:09:53.375Z,96512.22
2023-12-29T10:12:22.736Z,96511.13
2023-12-29T10:14:59.032Z,96509.81
2023-12-29T10:17:42.930Z,96505.34
2023-12-29T10:20:23.187Z,96512.44
2023-12-29T10:22:51.627Z,96508.22
2023-12-29T10:25:20.770Z,96508.22
2023-12-29T10:27:49.987Z,96512.44
2023-12-29T10:30:25.268Z,96507.97
2023-12-29T10:32:57.975Z,96501.09
2023-12-29T10:35:28.561Z,96505.56
2023-12-29T10:38:09.674Z,96500.06
2023-12-29T10:40:38.091Z,96505.88
2023-12-29T10:43:09.259Z,96502.72
2023-12-29T10:45:40.790Z,96503.50
2023-12-29T10:48:10.085Z,96510.34
2023-12-29T10:50:47.091Z,96507.22
2023-12-29T10:53:16.835Z,96497.72
2023-12-29T10:55:46.278Z,96500.63
2023-12-29T10:58:17.714Z,96497.97
2023-12-29T11:00:48.210Z,96498.25
2023-12-29T11:03:18.213Z,96492.69
2023-12-29T11:05:47.091Z,96499.56
2023-12-29T11:08:20.548Z,96493.22
2023-12-29T11:10:52.578Z,96496.13
2023-12-29T11:13:21.613Z,96488.19
2023-12-29T11:15:50.257Z,96483.41
2023-12-29T11:18:19.633Z,96483.41
2023-12-29T11:20:50.645Z,96481.84
2023-12-29T11:23:21.013Z,96473.41
2023-12-29T11:25:50.514Z,96476.31
2023-12-29T11:28:19.721Z,96468.41
2023-12-29T11:30:48.420Z,96470.53
2023-12-29T11:33:20.637Z,96466.03
2023-12-29T11:35:58.475Z,96462.09
2023-12-29T11:38:45.471Z,96470.28
2023-12-29T11:41:14.350Z,96460.25
2023-12-29T11:43:42.758Z,96458.94
2023-12-29T11:46:31.016Z,96453.69
2023-12-29T11:49:00.343Z,96453.44
2023-12-29T11:51:29.958Z,96444.47
2023-12-29T11:53:58.697Z,96447.63
2023-12-29T11:56:32.295Z,96447.41
2023-12-29T11:59:16.837Z,96445.53
2023-12-29T12:01:46.780Z,96445.81
2023-12-29T12:04:34.558Z,96440.81
2023-12-29T12:07:03.709Z,96442.66
2023-12-29T12:09:32.195Z,96443.97
2023-12-29T12:12:00.734Z,96443.72
2023-12-29T12:15:04.721Z,96446.31
2023-12-29T12:17:34.335Z,96440.78
2023-12-29T12:20:10.583Z,96446.56
2023-12-29T12:22:39.772Z,96444.16
2023-12-29T12:25:08.765Z,96451.78
2023-12-29T12:27:39.331Z,96449.94
2023-12-29T12:30:08.362Z,96449.63
2023-12-29T12:32:36.789Z,96453.03
2023-12-29T12:35:05.626Z,96453.56
2023-12-29T12:37:34.091Z,96454.09
2023-12-29T12:40:05.510Z,96453.53
2023-12-29T12:42:34.712Z,96459.34
2023-12-29T12:45:13.923Z,96453.00
2023-12-29T12:47:53.203Z,96457.75
2023-12-29T12:50:22.046Z,96456.69
2023-12-29T12:52:50.799Z,96458.00
2023-12-29T12:55:19.658Z,96460.66
2023-12-29T12:57:48.580Z,96457.72
2023-12-29T13:00:18.858Z,96453.22
2023-12-29T13:02:48.252Z,96460.88
2023-12-29T13:05:17.842Z,96457.69
2023-12-29T13:07:46.894Z,96455.84
2023-12-29T13:10:15.828Z,96451.06
2023-12-29T13:12:54.167Z,96451.88
2023-12-29T13:15:23.108Z,96444.75
2023-12-29T13:17:52.463Z,96439.44
2023-12-29T13:20:21.089Z,96442.09
2023-12-29T13:22:51.852Z,96436.81
2023-12-29T13:25:22.199Z,96433.91
2023-12-29T13:27:51.272Z,96426.25
2023-12-29T13:30:21.256Z,96417.00
2023-12-29T13:32:51.056Z,96417.81
2023-12-29T13:35:26.365Z,96413.31
2023-12-29T13:38:17.845Z,96404.63
2023-12-29T13:40:55.574Z,96407.25
2023-12-29T13:43:24.664Z,96391.41
2023-12-29T13:45:53.425Z,96402.50
2023-12-29T13:48:23.458Z,96396.44
2023-12-29T13:50:52.621Z,96404.63
2023-12-29T13:53:21.892Z,96388.53
2023-12-29T13:55:50.545Z,96398.81
2023-12-29T13:58:19.521Z,96399.59
2023-12-29T14:00:58.439Z,96410.16
2023-12-29T14:03:36.711Z,96400.13
2023-12-29T14:06:10.172Z,96410.69
2023-12-29T14:08:47.083Z,96421.25
2023-12-29T14:11:17.794Z,96419.16
2023-12-29T14:13:46.812Z,96413.06
2023-12-29T14:16:22.333Z,96421.78
2023-12-29T14:19:01.197Z,96419.94
2023-12-29T14:21:30.508Z,96420.72
2023-12-29T14:24:03.178Z,96413.59
2023-12-29T14:26:31.824Z,96405.13
2023-12-29T14:29:04.313Z,96401.44
2023-12-29T14:31:34.869Z,96397.44
2023-12-29T14:34:03.526Z,96393.47
2023-12-29T14:36:32.992Z,96393.47
2023-12-29T14:39:01.473Z,96385.28
2023-12-29T14:41:30.286Z,96381.56
2023-12-29T14:43:58.837Z,96382.06
2023-12-29T14:46:27.436Z,96372.03
2023-12-29T14:48:56.396Z,96371.47
2023-12-29T14:51:24.982Z,96366.97
2023-12-29T14:53:53.434Z,96364.06
2023-12-29T14:56:21.974Z,96359.84
2023-12-29T14:58:50.447Z,96364.34
2023-12-29T15:01:20.362Z,96356.41
2023-12-29T15:03:49.179Z,96353.75
2023-12-29T15:06:17.698Z,96346.91
2023-12-29T15:08:46.119Z,96342.91
2023-12-29T15:11:14.586Z,96333.94
2023-12-29T15:13:44.268Z,96337.13
2023-12-29T15:16:13.121Z,96327.38
2023-12-29T15:18:41.762Z,96333.78
2023-12-29T15:21:10.408Z,96326.69
2023-12-29T15:23:38.856Z,96335.69
2023-12-29T15:26:07.842Z,96327.47
2023-12-29T15:28:36.264Z,96329.84
2023-12-29T15:31:05.197Z,96325.09
2023-12-29T15:33:33.768Z,96322.94
2023-12-29T15:36:02.302Z,96316.88
2023-12-29T15:38:31.178Z,96323.22
2023-12-29T15:40:59.667Z,96319.53
2023-12-29T15:43:31.075Z,96319.00
2023-12-29T15:45:59.571Z,96316.34
2023-12-29T15:48:28.521Z,96321.63
2023-12-29T15:50:58.009Z,96324.00
2023-12-29T15:53:26.465Z,96320.56
2023-12-29T15:55:54.892Z,96322.97
2023-12-29T15:58:23.536Z,96320.34
2023-12-29T16:00:53.781Z,96318.84
2023-12-29T16:03:22.459Z,96314.59
2023-12-29T16:05:51.045Z,96317.28
2023-12-29T16:08:19.464Z,96312.81
2023-12-29T16:10:47.972Z,96312.31
2023-12-29T16:13:16.444Z,96312.31
2023-12-29T16:15:44.823Z,96316.81
2023-12-29T16:18:16.344Z,96312.88
2023-12-29T16:20:45.016Z,96302.88
2023-12-29T16:23:13.772Z,96301.03
2023-12-29T16:25:42.341Z,96308.16
2023-12-29T16:28:10.855Z,96305.50
2023-12-29T16:30:39.551Z,96313.22
2023-12-29T16:33:08.253Z,96311.91
2023-12-29T16:35:36.775Z,96307.94
2023-12-29T16:38:07.003Z,96308.22
2023-12-29T16:40:35.591Z,96302.41
2023-12-29T16:43:04.281Z,96302.69
2023-12-29T16:45:32.945Z,96304.28
2023-12-29T16:48:04.427Z,96303.75
2023-12-29T16:50:32.948Z,96301.13
2023-12-29T16:53:01.714Z,96303.78
2023-12-29T16:55:30.472Z,96298.50
2023-12-29T16:57:59.088Z,96302.50
2023-12-29T17:00:29.412Z,96295.63
2023-12-29T17:02:58.110Z,96293.78
2023-12-29T17:05:26.671Z,96298.53
2023-12-29T17:07:55.116Z,96297.47
2023-12-29T17:10:23.614Z,96303.81
2023-12-29T17:12:53.529Z,96295.63
2023-12-29T17:15:23.249Z,96285.09
2023-12-29T17:17:52.345Z,96273.78
2023-12-29T17:20:22.719Z,96266.16
2023-12-29T17:22:51.033Z,96261.94
2023-12-29T17:25:19.564Z,96266.16
2023-12-29T17:27:49.166Z,96266.44
2023-12-29T17:30:18.337Z,96265.13
2023-12-29T17:32:46.856Z,96267.50
2023-12-29T17:35:15.439Z,96270.72
2023-12-29T17:37:43.943Z,96267.81
2023-12-29T17:40:12.707Z,96267.59
2023-12-29T17:42:41.397Z,96266.28
2023-12-29T17:45:09.874Z,96250.47
2023-12-29T17:47:38.496Z,96248.38
2023-12-29T17:50:07.438Z,96249.16
2023-12-29T17:52:35.922Z,96258.44
2023-12-29T17:55:04.466Z,96260.00
2023-12-29T17:57:32.922Z,96258.41
2023-12-29T18:00:01.305Z,96255.75
2023-12-29T18:02:33.840Z,96246.81
2023-12-29T18:05:02.464Z,96243.97
2023-12-29T18:07:31.695Z,96242.94
2023-12-29T18:10:00.366Z,96245.06
2023-12-29T18:12:29.461Z,96238.75
2023-12-29T18:14:57.962Z,96234.56
2023-12-29T18:17:27.346Z,96230.59
2023-12-29T18:19:55.931Z,96230.88
2023-12-29T18:22:24.398Z,96229.84
2023-12-29T18:24:52.935Z,96227.25
2023-12-29T18:27:21.592Z,96236.97
2023-12-29T18:29:49.986Z,96227.75
2023-12-29T18:32:21.781Z,96234.34
2023-12-29T18:34:51.644Z,96234.09
2023-12-29T18:37:21.784Z,96231.47
2023-12-29T18:39:50.729Z,96230.66
2023-12-29T18:42:19.198Z,96233.06
2023-12-29T18:44:47.790Z,96233.84
2023-12-29T18:47:16.144Z,96232.00
2023-12-29T18:49:44.666Z,96237.56
2023-12-29T18:52:13.425Z,96229.41
2023-12-29T18:54:42.045Z,96233.09
2023-12-29T18:57:10.467Z,96235.19
2023-12-29T18:59:38.887Z,96238.34
2023-12-29T19:02:13.409Z,96247.56
2023-12-29T19:04:42.387Z,96243.06
2023-12-29T19:07:12.144Z,96248.34
2023-12-29T19:09:41.047Z,96246.22
2023-12-29T19:12:09.538Z,96247.28
2023-12-29T19:14:38.176Z,96243.59
2023-12-29T19:17:07.850Z,96241.22
2023-12-29T19:19:36.712Z,96244.63
2023-12-29T19:22:05.293Z,96239.34
2023-12-29T19:24:37.248Z,96242.47
2023-12-29T19:27:06.783Z,96235.13
2023-12-29T19:29:35.728Z,96235.88
2023-12-29T19:32:04.432Z,96238.22
2023-12-29T19:34:32.971Z,96231.91
2023-12-29T19:37:01.676Z,96240.81
2023-12-29T19:39:30.156Z,96243.16
2023-12-29T19:41:58.681Z,96236.09
2023-12-29T19:44:27.086Z,96235.28
2023-12-29T19:46:55.649Z,96233.19
2023-12-29T19:49:24.149Z,96233.19
2023-12-29T19:51:52.618Z,96230.28
2023-12-29T19:54:21.758Z,96230.56
2023-12-29T19:56:54.562Z,96221.38
2023-12-29T19:59:23.014Z,96221.41
2023-12-29T20:01:52.713Z,96225.63
2023-12-29T20:04:21.743Z,96220.66
2023-12-29T20:06:50.301Z,96224.91
2023-12-29T20:09:18.788Z,96217.56
2023-12-29T20:11:47.397Z,96215.97
2023-12-29T20:14:15.835Z,96203.34
2023-12-29T20:16:44.832Z,96195.19
2023-12-29T20:19:13.504Z,96187.00
2023-12-29T20:21:42.073Z,96182.81
2023-12-29T20:24:11.676Z,96170.94
2023-12-29T20:26:40.482Z,96166.72
2023-12-29T20:29:09.630Z,96165.41
2023-12-29T20:31:38.169Z,96151.47
2023-12-29T20:34:06.916Z,96149.59
2023-12-29T20:36:35.377Z,96143.81
2023-12-29T20:39:03.908Z,96143.00
2023-12-29T20:41:33.014Z,96146.13
2023-12-29T20:44:01.499Z,96142.47
2023-12-29T20:46:29.935Z,96133.53
2023-12-29T20:48:58.424Z,96137.78
2023-12-29T20:51:28.297Z,96127.81
2023-12-29T20:53:57.284Z,96128.09
2023-12-29T20:56:26.459Z,96121.56
2023-12-29T20:58:56.773Z,96125.78
2023-12-29T21:01:27.398Z,96116.59
2023-12-29T21:03:56.186Z,96130.25
2023-12-29T21:06:24.719Z,96128.66
2023-12-29T21:09:00.040Z,96111.59
2023-12-29T21:11:28.685Z,96111.56
2023-12-29T21:13:57.376Z,96107.59
2023-12-29T21:16:25.954Z,96101.56
2023-12-29T21:18:55.750Z,96104.44
2023-12-29T21:21:25.918Z,96092.38
2023-12-29T21:23:56.785Z,96087.88
2023-12-29T21:26:25.324Z,96091.06
2023-12-29T21:28:53.742Z,96078.41
2023-12-29T21:31:22.419Z,96076.03
2023-12-29T21:33:51.276Z,96078.44
2023-12-29T21:36:30.336Z,96083.69
2023-12-29T21:38:59.514Z,96080.53
2023-12-29T21:41:29.231Z,96078.44
2023-12-29T21:43:57.664Z,96075.31
2023-12-29T21:46:26.133Z,96069.78
2023-12-29T21:48:54.612Z,96072.16
2023-12-29T21:51:26.512Z,96075.59
2023-12-29T21:53:55.006Z,96077.19
2023-12-29T21:56:23.514Z,96069.03
2023-12-29T21:58:53.917Z,96069.53
2023-12-29T22:01:29.401Z,96076.91
2023-12-29T22:03:58.430Z,96072.72
2023-12-29T22:06:27.157Z,96066.66
2023-12-29T22:08:55.571Z,96057.97
2023-12-29T22:11:24.347Z,96059.28
2023-12-29T22:13:52.967Z,96051.41
2023-12-29T22:16:21.781Z,96050.34
2023-12-29T22:18:50.471Z,96052.44
2023-12-29T22:21:19.672Z,96065.84
2023-12-29T22:23:48.785Z,96067.16
2023-12-29T22:26:18.305Z,96072.66
2023-12-29T22:28:47.784Z,96075.84
2023-12-29T22:31:16.881Z,96083.47
2023-12-29T22:33:46.263Z,96070.84
2023-12-29T22:36:16.380Z,96069.28
2023-12-29T22:38:45.447Z,96080.81
2023-12-29T22:41:15.775Z,96085.03
2023-12-29T22:43:44.301Z,96087.41
2023-12-29T22:46:20.600Z,96082.94
2023-12-29T22:48:53.141Z,96087.13
2023-12-29T22:51:21.718Z,96072.94
2023-12-29T22:53:50.192Z,96075.03
2023-12-29T22:56:19.580Z,96074.28
2023-12-29T22:58:48.215Z,96072.94
2023-12-29T23:01:18.488Z,96069.00
2023-12-29T23:03:48.259Z,96062.97
2023-12-29T23:06:17.137Z,96063.22
2023-12-29T23:08:45.694Z,96058.22
2023-12-29T23:11:14.179Z,96062.41
2023-12-29T23:13:42.918Z,96060.59
2023-12-29T23:16:11.618Z,96058.47
2023-12-29T23:18:41.583Z,96059.53
2023-12-29T23:21:13.596Z,96055.84
2023-12-29T23:23:42.187Z,96051.41
2023-12-29T23:26:10.493Z,96044.53
2023-12-29T23:28:39.407Z,96051.91
2023-12-29T23:31:11.623Z,96056.38
2023-12-29T23:33:40.191Z,96057.16
2023-12-29T23:36:08.877Z,96069.50
2023-12-29T23:38:37.320Z,96072.13
2023-12-29T23:41:05.806Z,96069.78
2023-12-29T23:43:34.265Z,96057.94
2023-12-29T23:46:02.830Z,96062.94
2023-12-29T23:48:31.854Z,96067.94
2023-12-29T23:51:00.437Z,96062.41
2023-12-29T23:53:28.975Z,96067.38
2023-12-29T23:55:57.571Z,96066.59
2023-12-29T23:58:26.118Z,96073.44
